Huvudsida
METAR-TAF:

METAR-TAF

Flygplatser :

Tromsø, Norge

Tromsø flygplats

latitud: 69-41N, longitud: 018-55E, höjd: 1 m

Aktuellt väderrapport

Denna rapport gjordes för 14 minuter sedan, klockan 14:50 UTC
Vind 1 kt varierande vindriktning
Temperatur 6°C
Fuktighet 70%
Tryck 1001 hPa
Sikt 10 km eller mer
Brutna moln på en höjd av 4400 ft

METAR: ENTC 211450Z VRB01KT 9999 BKN044 06/01 Q1001 NOSIG RMK WIND 2600FT 18006KT

Tid: 17:04 (15:04 UTC)

Väderprognos

Prognos gäller från 21 kl. 12 UTC till 22 kl. 12 UTC
Vind 5 kt varierande vindriktning
Sikt 10 km eller mer
Få moln på en höjd av 1200 ft
Spridda moln på en höjd av 4000 ft
Sannolikhet 30%
från 22 kl. 00 UTC till 22 kl. 08 UTC
Brutna moln på en höjd av 1000 ft

TAF: ENTC 2112/2212 VRB05KT 9999 FEW012 SCT040 PROB30 2200/2208 BKN010

Aktuella väderrapporter och prognoser från 4000 flygplatser (METAR- och TAF-rapporter).

De tillgängliga stationerna syns som gula och röda prickar på kartan.

För musen över prickarna för att se namnen på stationerna.

Klicka sedan för att få väderrapporter och prognoser.

För att ändra kartan: Klicka på de gröna knapparna med ett svart kors på för att zooma in; den gröna knappen med ett streck på för att zooma ut; eller på de gröna pilarna för angränsande kartor.


METAR-TAF: